»·PEaware :: THT2170 HEMA-KSBD

THT2170 :: HEMA-KSBD

FLIGHT INFORMATION

Flight Status: Arrived
Operator:
Air Tahiti Nui
More flights by this operator :: More flights under this callsign
Pilot: Alan J. (5709)
Aircraft: Unknown
(A359)
More flights by this aircraft type
Origin: HEMA Marsa Alam Intl
Egypt
Destination: KSBD San Bernardino Intl
United States
More flights between these airports :: More routes between these airports
Route: +NORRA J107 HEC ZIGGY6
File this flight plan on PilotEdge
Remarks:
Altitude:
(Current/Filed)
40,000ft
Speed:
(Current/Filed)
480kts
Departed: 14-Nov-17 12:24 PM
Arrived: 14-Nov-17 01:18 PM
Distance/Time
Traveled:
6877nm/0:54
Distance/Time
To Go:
Arrived

Flight Plot

Page will automatically refresh every two minutes.

Flight plan parsing failed; only flown route is shown


Map Options




Map Legend


Flown Route
Filed Route
Departure Airport
Arrival Airport
Navaid (VOR, NDB)
Fix

Horizontal Profiles

Position Reports

Time Latitude Longitude Heading Altitude Ground
Speed
14-Nov-17 12:28 37.472323 -113.725900 219 40224ft 428kts
14-Nov-17 12:29 37.371848 -113.805109 219 40219ft 429kts
14-Nov-17 12:30 37.270867 -113.884349 219 40219ft 428kts
14-Nov-17 12:31 37.169981 -113.963248 219 40219ft 429kts
14-Nov-17 12:32 37.069403 -114.041681 219 40219ft 428kts
14-Nov-17 12:33 36.968469 -114.120104 218 40219ft 427kts
14-Nov-17 12:34 36.868405 -114.197362 218 40190ft 427kts
14-Nov-17 12:35 36.767425 -114.275016 218 40216ft 427kts
14-Nov-17 12:36 36.666252 -114.352254 218 40201ft 428kts
14-Nov-17 12:37 36.564704 -114.429314 218 40179ft 428kts
14-Nov-17 12:38 36.463690 -114.505727 218 40159ft 428kts
14-Nov-17 12:39 36.362781 -114.583394 218 40156ft 427kts
14-Nov-17 12:40 36.262312 -114.660569 218 40133ft 428kts
14-Nov-17 12:41 36.161536 -114.737999 218 40158ft 428kts
14-Nov-17 12:42 36.060432 -114.814974 218 40160ft 428kts
14-Nov-17 12:43 35.968042 -114.903148 232 40157ft 416kts
14-Nov-17 12:44 35.890797 -115.008279 232 40129ft 417kts
14-Nov-17 12:45 35.812714 -115.113434 232 40171ft 419kts
14-Nov-17 12:46 35.734229 -115.219527 232 40183ft 421kts
14-Nov-17 12:47 35.655751 -115.325385 232 40188ft 420kts
14-Nov-17 12:48 35.577040 -115.431284 231 40189ft 421kts
14-Nov-17 12:49 35.498143 -115.537128 232 40189ft 421kts
14-Nov-17 12:50 35.419075 -115.642858 231 40189ft 421kts
14-Nov-17 12:51 35.344403 -115.742814 231 38979ft 424kts
14-Nov-17 12:52 35.269840 -115.842033 231 36441ft 421kts
14-Nov-17 12:53 35.190318 -115.947443 231 33749ft 423kts
14-Nov-17 12:54 35.111703 -116.051169 231 31060ft 407kts
14-Nov-17 12:55 35.036096 -116.150725 231 28373ft 397kts
14-Nov-17 12:56 34.962584 -116.247170 232 25684ft 382kts
14-Nov-17 12:57 34.892072 -116.339438 232 24144ft 372kts
14-Nov-17 12:58 34.821894 -116.430587 232 24132ft 371kts
14-Nov-17 12:59 34.750002 -116.521232 230 21793ft 374kts
14-Nov-17 13:00 34.680487 -116.606422 230 19102ft 339kts
14-Nov-17 13:01 34.617037 -116.684541 229 16389ft 318kts
14-Nov-17 13:02 34.554919 -116.760860 228 14531ft 319kts
14-Nov-17 13:03 34.492804 -116.836768 228 12742ft 318kts
14-Nov-17 13:04 34.434966 -116.907070 228 11982ft 264kts
14-Nov-17 13:05 34.386549 -116.965924 229 11988ft 241kts
14-Nov-17 13:06 34.339376 -117.023214 229 11998ft 240kts
14-Nov-17 13:07 34.292325 -117.080234 230 11981ft 240kts
14-Nov-17 13:08 34.246234 -117.129578 206 10373ft 253kts
14-Nov-17 13:09 34.176427 -117.143098 192 9994ft 255kts
14-Nov-17 13:10 34.106301 -117.155118 192 9020ft 253kts
14-Nov-17 13:11 34.036646 -117.168101 193 7797ft 256kts
14-Nov-17 13:12 33.999669 -117.229277 252 6031ft 232kts
14-Nov-17 13:13 33.977055 -117.301229 252 6005ft 230kts
14-Nov-17 13:14 33.954450 -117.373222 252 6002ft 229kts
14-Nov-17 13:15 33.931864 -117.445997 252 4896ft 231kts
14-Nov-17 13:16 33.954166 -117.499287 341 3988ft 219kts
14-Nov-17 13:17 34.005102 -117.504540 49 4001ft 191kts
14-Nov-17 13:18 34.031873 -117.449885 75 3988ft 196kts
14-Nov-17 13:19 34.050735 -117.386705 68 3738ft 198kts
14-Nov-17 13:20 34.069301 -117.323595 69 2489ft 191kts
14-Nov-17 13:21 34.085620 -117.267629 69 1424ft 160kts
14-Nov-17 13:22 34.097760 -117.226510 70 1149ft 67kts
14-Nov-17 13:23 34.101280 -117.220828 251 1165ft 11kts
14-Nov-17 13:24 34.101242 -117.220963 251 1165ft 0kts
14-Nov-17 13:25 34.100771 -117.222567 250 1160ft 18kts
14-Nov-17 13:26 34.099490 -117.226846 251 1149ft 17kts
14-Nov-17 13:27 34.096895 -117.235654 250 1127ft 36kts
14-Nov-17 13:28 34.098224 -117.238782 269 1118ft 21kts
14-Nov-17 13:29 34.101091 -117.244261 348 1108ft 10kts
14-Nov-17 13:30 34.101461 -117.245538 270 1105ft 0kts
14-Nov-17 13:31 34.101461 -117.245538 270 1105ft 0kts
14-Nov-17 13:32 34.101461 -117.245538 270 1105ft 0kts
14-Nov-17 13:33 34.101461 -117.245538 270 1105ft 0kts
14-Nov-17 13:34 34.101461 -117.245538 270 1105ft 0kts
14-Nov-17 13:35 34.101461 -117.245538 270 1105ft 0kts
14-Nov-17 13:36 34.101461 -117.245538 270 1105ft 0kts
14-Nov-17 13:37 34.101461 -117.245538 270 1105ft 0kts

Navigation Log

Ident Type
Flight plan parsing failed, navigation log unavailable